Silver Bell, Arizona
Current Conditions -  °F | °C
As of 8:47 AM on Saturday 25 Oct 2014 (Local Time) from KRYN Reporting Station
Clear Clear  
Wind Chill: 72°   Ceiling: Unl
Heat Index: 72°   Visibility: 10mi
Dew Point: 52°   Wind: 123mph
Humidity: 50%   Direction: 90°E
Pressure: 30.14"   Gusts: NA
Location:  32.38°N, 111.5°W
Report Text: KRYN 251547Z 090107KT 10SM CLR 22/11 A3014
Loading
Personal Weather Stations






























Interactive Weather Map
Tropical Storm Tracking
New forecast layout! Learn more

10-Day Weather Forecast

Advertisements
Track Severe Weather on mobile